createdAt,value
2018-01-12T16:24:18.316Z,975.38
2018-01-12T16:25:17.793Z,975.38
2018-01-12T16:26:17.848Z,975.37
2018-01-12T16:27:17.906Z,975.39
2018-01-12T16:28:17.956Z,975.35
2018-01-12T16:29:18.016Z,975.35
2018-01-12T16:30:18.071Z,975.33
2018-01-12T16:31:18.126Z,975.35
2018-01-12T16:32:18.186Z,975.33
2018-01-12T16:33:18.246Z,975.30
2018-01-12T16:34:18.300Z,975.32
2018-01-12T16:35:18.357Z,975.32
2018-01-12T16:36:18.407Z,975.35
2018-01-12T16:37:18.466Z,975.32
2018-01-12T16:38:18.522Z,975.34
2018-01-12T16:39:18.582Z,975.35
2018-01-12T16:40:45.452Z,975.35
2018-01-12T16:42:28.073Z,975.38
2018-01-12T16:43:28.129Z,975.34
2018-01-12T16:44:28.187Z,975.36
2018-01-12T16:45:28.241Z,975.38
2018-01-12T16:46:28.295Z,975.36
2018-01-12T16:47:28.353Z,975.36
2018-01-12T16:48:28.412Z,975.38
2018-01-12T16:49:28.473Z,975.39
2018-01-12T16:50:28.532Z,975.40
2018-01-12T16:51:28.590Z,975.40
2018-01-12T16:52:28.649Z,975.40
2018-01-12T16:53:28.702Z,975.40
2018-01-12T16:54:28.761Z,975.43
2018-01-12T16:55:28.819Z,975.43
2018-01-12T16:56:28.878Z,975.43
2018-01-12T16:57:28.936Z,975.45
2018-01-12T16:58:28.996Z,975.44
2018-01-12T16:59:29.053Z,975.47
2018-01-12T17:00:29.111Z,975.47
2018-01-12T17:01:29.174Z,975.48
2018-01-12T17:02:29.232Z,975.43
2018-01-12T17:03:29.292Z,975.43
2018-01-12T17:04:29.351Z,975.41
2018-01-12T17:05:29.403Z,975.45
2018-01-12T17:06:29.464Z,975.41
2018-01-12T17:07:29.522Z,975.41
2018-01-12T17:08:29.581Z,975.40
2018-01-12T17:09:29.642Z,975.39
2018-01-12T17:10:29.701Z,975.37
2018-01-12T17:11:29.759Z,975.38
2018-01-12T17:12:29.818Z,975.40
2018-01-12T17:13:29.872Z,975.39
2018-01-12T17:14:29.930Z,975.37
2018-01-12T17:15:29.989Z,975.39
2018-01-12T17:16:30.049Z,975.38
2018-01-12T17:17:30.111Z,975.36
2018-01-12T17:18:30.170Z,975.36
2018-01-12T17:19:30.232Z,975.32
2018-01-12T17:20:30.347Z,975.32
2018-01-12T17:21:30.340Z,975.30
2018-01-12T17:22:30.400Z,975.31
2018-01-12T17:23:30.459Z,975.31
2018-01-12T17:24:30.518Z,975.29
2018-01-12T17:25:30.579Z,975.28
2018-01-12T17:26:30.640Z,975.28
2018-01-12T17:27:30.697Z,975.28
2018-01-12T17:28:30.759Z,975.28
2018-01-12T17:29:30.814Z,975.30
2018-01-12T17:30:30.874Z,975.23
2018-01-12T17:31:30.932Z,975.27
2018-01-12T17:32:30.990Z,975.30
2018-01-12T17:33:31.045Z,975.28
2018-01-12T17:34:31.104Z,975.28
2018-01-12T17:35:31.162Z,975.29
2018-01-12T17:36:31.221Z,975.29
2018-01-12T17:37:31.282Z,975.23
2018-01-12T17:38:31.341Z,975.25
2018-01-12T17:39:31.401Z,975.30
2018-01-12T17:40:31.459Z,975.28
2018-01-12T17:41:31.513Z,975.29
2018-01-12T17:42:31.572Z,975.30
2018-01-12T17:43:31.631Z,975.29
2018-01-12T17:44:31.689Z,975.31
2018-01-12T17:45:31.751Z,975.29
2018-01-12T17:46:31.811Z,975.30
2018-01-12T17:47:31.870Z,975.36
2018-01-12T17:48:31.929Z,975.31
2018-01-12T17:49:31.985Z,975.32
2018-01-12T17:50:32.042Z,975.31
2018-01-12T17:51:32.099Z,975.28
2018-01-12T17:52:32.159Z,975.32
2018-01-12T17:53:32.220Z,975.31
2018-01-12T17:54:32.282Z,975.29
2018-01-12T17:55:32.340Z,975.30
2018-01-12T17:56:32.398Z,975.28
2018-01-12T17:57:32.450Z,975.32
2018-01-12T17:58:32.510Z,975.30
2018-01-12T17:59:32.569Z,975.30
2018-01-12T18:00:32.628Z,975.27
2018-01-12T18:01:32.685Z,975.32
2018-01-12T18:02:32.745Z,975.31
2018-01-12T18:03:32.802Z,975.29
2018-01-12T18:04:32.862Z,975.30
2018-01-12T18:05:32.925Z,975.31
2018-01-12T18:06:32.982Z,975.30
2018-01-12T18:07:33.041Z,975.29
2018-01-12T18:08:33.100Z,975.27
2018-01-12T18:09:33.154Z,975.28
2018-01-12T18:10:33.213Z,975.27
2018-01-12T18:11:33.271Z,975.28
2018-01-12T18:12:33.331Z,975.26
2018-01-12T18:13:33.392Z,975.24
2018-01-12T18:14:33.451Z,975.25
2018-01-12T18:15:33.510Z,975.25
2018-01-12T18:16:33.570Z,975.25
2018-01-12T18:17:33.625Z,975.24
2018-01-12T18:18:33.681Z,975.27
2018-01-12T18:19:33.741Z,975.21
2018-01-12T18:20:33.800Z,975.23
2018-01-12T18:21:33.861Z,975.21
2018-01-12T18:22:33.919Z,975.22
2018-01-12T18:23:33.982Z,975.24
2018-01-12T18:24:34.040Z,975.21
2018-01-12T18:25:34.090Z,975.24
2018-01-12T18:26:34.207Z,975.21
2018-01-12T18:27:34.209Z,975.22
2018-01-12T18:28:34.267Z,975.26
2018-01-12T18:29:34.331Z,975.25
2018-01-12T18:30:34.388Z,975.26
2018-01-12T18:31:34.448Z,975.28
2018-01-12T18:32:34.507Z,975.30
2018-01-12T18:33:34.568Z,975.26
2018-01-12T18:34:34.622Z,975.30
2018-01-12T18:35:34.682Z,975.30
2018-01-12T18:36:34.742Z,975.35
2018-01-12T18:37:34.794Z,975.32
2018-01-12T18:38:34.853Z,975.34
2018-01-12T18:39:34.914Z,975.34
2018-01-12T18:40:34.971Z,975.38
2018-01-12T18:41:35.033Z,975.38
2018-01-12T18:42:35.091Z,975.36
2018-01-12T18:43:35.178Z,975.34
2018-01-12T18:44:35.217Z,975.36
2018-01-12T18:45:35.263Z,975.37
2018-01-12T18:46:35.321Z,975.35
2018-01-12T18:47:35.381Z,975.35
2018-01-12T18:48:35.438Z,975.37
2018-01-12T18:49:35.497Z,975.39
2018-01-12T18:50:35.556Z,975.35
2018-01-12T18:51:35.614Z,975.37
2018-01-12T18:52:35.675Z,975.37
2018-01-12T18:53:35.735Z,975.39
2018-01-12T18:54:35.794Z,975.37
2018-01-12T18:55:35.853Z,975.38
2018-01-12T18:56:35.911Z,975.32
2018-01-12T18:57:35.966Z,975.36
2018-01-12T18:58:36.027Z,975.38
2018-01-12T18:59:36.085Z,975.38
2018-01-12T19:00:36.143Z,975.35
2018-01-12T19:01:36.204Z,975.36
2018-01-12T19:02:36.263Z,975.37
2018-01-12T19:03:36.324Z,975.40
2018-01-12T19:04:36.380Z,975.40
2018-01-12T19:05:36.438Z,975.37
2018-01-12T19:06:36.502Z,975.39
2018-01-12T19:08:19.124Z,975.38
2018-01-12T19:09:19.183Z,975.43
2018-01-12T19:10:19.242Z,975.39
2018-01-12T19:11:19.294Z,975.38
2018-01-12T19:12:19.354Z,975.41
2018-01-12T19:13:19.413Z,975.40
2018-01-12T19:14:19.472Z,975.45
2018-01-12T19:15:19.533Z,975.43
2018-01-12T19:16:19.592Z,975.47
2018-01-12T19:17:19.651Z,975.45
2018-01-12T19:18:19.711Z,975.42
2018-01-12T19:19:19.764Z,975.43
2018-01-12T19:20:19.824Z,975.45
2018-01-12T19:21:19.882Z,975.44
2018-01-12T19:22:20.143Z,975.44
2018-01-12T19:23:19.999Z,975.48
2018-01-12T19:25:02.631Z,975.47
2018-01-12T19:26:02.691Z,975.49
2018-01-12T19:27:02.749Z,975.50
2018-01-12T19:28:02.804Z,975.48
2018-01-12T19:29:02.862Z,975.46
2018-01-12T19:30:02.922Z,975.46
2018-01-12T19:31:02.984Z,975.47
2018-01-12T19:32:03.042Z,975.46
2018-01-12T19:33:03.101Z,975.48
2018-01-12T19:34:03.159Z,975.47
2018-01-12T19:35:03.219Z,975.48
2018-01-12T19:36:03.272Z,975.53
2018-01-12T19:37:03.331Z,975.52
2018-01-12T19:38:03.390Z,975.51
2018-01-12T19:39:03.450Z,975.50
2018-01-12T19:40:03.531Z,975.54
2018-01-12T19:41:03.567Z,975.53
2018-01-12T19:42:03.625Z,975.56
2018-01-12T19:43:03.686Z,975.56
2018-01-12T19:44:03.747Z,975.56
2018-01-12T19:45:03.807Z,975.53
2018-01-12T19:46:03.863Z,975.59
2018-01-12T19:47:03.924Z,975.58
2018-01-12T19:48:03.977Z,975.60
2018-01-12T19:49:04.036Z,975.59
2018-01-12T19:50:04.097Z,975.60
2018-01-12T19:51:04.155Z,975.60
2018-01-12T19:52:04.216Z,975.61
2018-01-12T19:53:04.275Z,975.60
2018-01-12T19:54:04.335Z,975.60
2018-01-12T19:55:04.465Z,975.57
2018-01-12T19:56:04.452Z,975.57
2018-01-12T19:57:04.506Z,975.58
2018-01-12T19:58:04.584Z,975.59
2018-01-12T19:59:04.638Z,975.56
2018-01-12T20:00:04.704Z,975.60
2018-01-12T20:01:04.748Z,975.59
2018-01-12T20:02:04.810Z,975.58
2018-01-12T20:03:04.889Z,975.61
2018-01-12T20:04:04.925Z,975.57
2018-01-12T20:05:04.991Z,975.59
2018-01-12T20:06:05.045Z,975.58
2018-01-12T20:07:05.094Z,975.60
2018-01-12T20:08:05.170Z,975.61
2018-01-12T20:09:05.234Z,975.64
2018-01-12T20:10:05.286Z,975.66
2018-01-12T20:11:05.356Z,975.67
2018-01-12T20:12:05.404Z,975.68
2018-01-12T20:13:05.466Z,975.67
2018-01-12T20:14:05.512Z,975.66
2018-01-12T20:15:05.576Z,975.66
2018-01-12T20:16:05.633Z,975.68
2018-01-12T20:17:05.698Z,975.66
2018-01-12T20:18:05.763Z,975.66
2018-01-12T20:19:05.820Z,975.63
2018-01-12T20:20:05.876Z,975.68
2018-01-12T20:21:05.936Z,975.64
2018-01-12T20:22:06.006Z,975.60
2018-01-12T20:23:06.051Z,975.61
2018-01-12T20:24:06.106Z,975.61
2018-01-12T20:25:06.167Z,975.66
2018-01-12T20:26:06.228Z,975.63
2018-01-12T20:27:06.283Z,975.61
2018-01-12T20:28:06.347Z,975.63
2018-01-12T20:29:06.410Z,975.61
2018-01-12T20:30:06.468Z,975.67
2018-01-12T20:31:06.531Z,975.67
2018-01-12T20:32:06.575Z,975.65
2018-01-12T20:33:06.637Z,975.66
2018-01-12T20:34:06.691Z,975.66
2018-01-12T20:35:06.755Z,975.65
2018-01-12T20:36:06.826Z,975.66
2018-01-12T20:37:06.891Z,975.65
2018-01-12T20:38:06.933Z,975.66
2018-01-12T20:39:07.003Z,975.65
2018-01-12T20:40:07.051Z,975.70
2018-01-12T20:41:07.108Z,975.68
2018-01-12T20:42:07.165Z,975.67
2018-01-12T20:43:07.223Z,975.67
2018-01-12T20:44:07.281Z,975.68
2018-01-12T20:45:07.338Z,975.67
2018-01-12T20:46:07.399Z,975.70
2018-01-12T20:47:07.454Z,975.70
2018-01-12T20:48:07.521Z,975.69
2018-01-12T20:49:07.579Z,975.66
2018-01-12T20:50:07.634Z,975.66
2018-01-12T20:51:07.697Z,975.72
2018-01-12T20:52:07.750Z,975.73
2018-01-12T20:53:07.808Z,975.69
2018-01-12T20:54:07.869Z,975.71
2018-01-12T20:55:50.495Z,975.72
2018-01-12T20:56:50.559Z,975.70
2018-01-12T20:57:50.617Z,975.70
2018-01-12T20:58:50.669Z,975.72
2018-01-12T20:59:50.727Z,975.70
2018-01-12T21:00:50.790Z,975.69
2018-01-12T21:01:50.843Z,975.71
2018-01-12T21:02:50.904Z,975.67
2018-01-12T21:03:50.964Z,975.64
2018-01-12T21:04:51.025Z,975.68
2018-01-12T21:05:51.124Z,975.67
2018-01-12T21:06:51.136Z,975.69
2018-01-12T21:07:51.183Z,975.71
2018-01-12T21:08:51.252Z,975.68
2018-01-12T21:09:51.311Z,975.69
2018-01-12T21:10:51.368Z,975.69
2018-01-12T21:11:51.430Z,975.68
2018-01-12T21:12:51.488Z,975.66
2018-01-12T21:13:51.550Z,975.62
2018-01-12T21:14:51.607Z,975.63
2018-01-12T21:15:51.663Z,975.66
2018-01-12T21:16:51.714Z,975.67
2018-01-12T21:17:51.770Z,975.65
2018-01-12T21:18:51.835Z,975.64
2018-01-12T21:19:51.894Z,975.62
2018-01-12T21:20:51.951Z,975.59
2018-01-12T21:21:52.013Z,975.63
2018-01-12T21:22:52.074Z,975.61
2018-01-12T21:23:52.120Z,975.62
2018-01-12T21:24:52.183Z,975.62
2018-01-12T21:25:52.247Z,975.60
2018-01-12T21:26:52.302Z,975.59
2018-01-12T21:27:52.352Z,975.62
2018-01-12T21:28:52.414Z,975.62
2018-01-12T21:29:52.467Z,975.62
2018-01-12T21:30:52.534Z,975.63
2018-01-12T21:31:52.585Z,975.61
2018-01-12T21:32:52.645Z,975.63
2018-01-12T21:33:52.706Z,975.61
2018-01-12T21:34:52.762Z,975.66
2018-01-12T21:35:52.817Z,975.66
2018-01-12T21:36:52.879Z,975.65
2018-01-12T21:37:52.937Z,975.64
2018-01-12T21:38:52.994Z,975.68
2018-01-12T21:39:53.053Z,975.66
2018-01-12T21:40:53.114Z,975.72
2018-01-12T21:41:53.172Z,975.69
2018-01-12T21:42:53.234Z,975.70
2018-01-12T21:43:53.286Z,975.70
2018-01-12T21:44:53.345Z,975.67
2018-01-12T21:45:53.405Z,975.66
2018-01-12T21:46:53.460Z,975.64
2018-01-12T21:47:53.516Z,975.67
2018-01-12T21:48:53.610Z,975.66
2018-01-12T21:49:53.633Z,975.66
2018-01-12T21:50:53.695Z,975.64
2018-01-12T21:51:53.754Z,975.68
2018-01-12T21:52:53.813Z,975.65
2018-01-12T21:53:53.872Z,975.63
2018-01-12T21:54:53.924Z,975.64
2018-01-12T21:55:53.984Z,975.66
2018-01-12T21:56:54.042Z,975.65
2018-01-12T21:57:54.101Z,975.67
2018-01-12T21:58:54.163Z,975.64
2018-01-12T21:59:54.222Z,975.66
2018-01-12T22:00:54.291Z,975.66
2018-01-12T22:01:54.338Z,975.66
2018-01-12T22:02:54.393Z,975.63
2018-01-12T22:03:54.450Z,975.63
2018-01-12T22:05:37.082Z,975.59
2018-01-12T22:06:37.141Z,975.60
2018-01-12T22:07:37.235Z,975.62
2018-01-12T22:08:37.253Z,975.59
2018-01-12T22:09:37.312Z,975.61
2018-01-12T22:11:19.943Z,975.60
2018-01-12T22:12:20.002Z,975.60
2018-01-12T22:13:20.061Z,975.59
2018-01-12T22:14:20.114Z,975.60
2018-01-12T22:15:20.173Z,975.62
2018-01-12T22:16:20.231Z,975.56
2018-01-12T22:17:20.290Z,975.59
2018-01-12T22:19:02.919Z,975.62
2018-01-12T22:20:02.979Z,975.60
2018-01-12T22:21:03.037Z,975.62
2018-01-12T22:22:03.089Z,975.63
2018-01-12T22:23:03.149Z,975.64
2018-01-12T22:24:45.780Z,975.62
2018-01-12T22:25:45.846Z,975.65
2018-01-12T22:26:45.898Z,975.62
2018-01-12T22:27:45.951Z,975.63
2018-01-12T22:28:46.010Z,975.65
2018-01-12T22:29:46.073Z,975.66
2018-01-12T22:30:46.127Z,975.63
2018-01-12T22:31:46.189Z,975.65
2018-01-12T22:32:46.247Z,975.66
2018-01-12T22:33:46.305Z,975.66
2018-01-12T22:34:46.364Z,975.64
2018-01-12T22:35:46.418Z,975.66
2018-01-12T22:36:46.476Z,975.68
2018-01-12T22:37:46.534Z,975.67
2018-01-12T22:38:46.593Z,975.67
2018-01-12T22:39:46.651Z,975.66
2018-01-12T22:40:46.711Z,975.68
2018-01-12T22:41:46.769Z,975.70
2018-01-12T22:42:46.827Z,975.71
2018-01-12T22:43:46.890Z,975.69
2018-01-12T22:44:46.949Z,975.68
2018-01-12T22:45:47.010Z,975.67
2018-01-12T22:46:47.065Z,975.70
2018-01-12T22:47:47.119Z,975.69
2018-01-12T22:48:47.178Z,975.70
2018-01-12T22:49:47.236Z,975.71
2018-01-12T22:50:47.294Z,975.72
2018-01-12T22:51:47.357Z,975.74
2018-01-12T22:52:47.415Z,975.73
2018-01-12T22:53:47.473Z,975.70
2018-01-12T22:54:47.532Z,975.71
2018-01-12T22:55:47.586Z,975.65
2018-01-12T22:56:47.645Z,975.65
2018-01-12T22:57:47.704Z,975.68
2018-01-12T22:58:47.762Z,975.68
2018-01-12T22:59:47.823Z,975.65
2018-01-12T23:00:47.882Z,975.64
2018-01-12T23:01:47.941Z,975.62
2018-01-12T23:02:48.003Z,975.59
2018-01-12T23:03:48.053Z,975.61
2018-01-12T23:04:48.111Z,975.58
2018-01-12T23:05:48.170Z,975.55
2018-01-12T23:06:48.228Z,975.55
2018-01-12T23:07:48.294Z,975.54
2018-01-12T23:08:48.349Z,975.54
2018-01-12T23:09:48.408Z,975.54
2018-01-12T23:10:48.466Z,975.54
2018-01-12T23:11:48.526Z,975.51
2018-01-12T23:12:48.583Z,975.54
2018-01-12T23:13:48.641Z,975.54
2018-01-12T23:14:48.700Z,975.53
2018-01-12T23:15:48.753Z,975.50
2018-01-12T23:17:31.385Z,975.50
2018-01-12T23:18:31.444Z,975.48
2018-01-12T23:19:31.502Z,975.47
2018-01-12T23:20:31.555Z,975.48
2018-01-12T23:21:31.614Z,975.48
2018-01-12T23:22:31.676Z,975.50
2018-01-12T23:23:31.732Z,975.49
2018-01-12T23:24:31.792Z,975.51
2018-01-12T23:25:31.852Z,975.53
2018-01-12T23:26:31.910Z,975.47
2018-01-12T23:27:31.968Z,975.49
2018-01-12T23:28:32.021Z,975.49
2018-01-12T23:29:32.080Z,975.52
2018-01-12T23:30:32.141Z,975.50
2018-01-12T23:31:32.198Z,975.51
2018-01-12T23:32:32.255Z,975.48
2018-01-12T23:33:32.314Z,975.50
2018-01-12T23:34:32.372Z,975.51
2018-01-12T23:35:32.431Z,975.51
2018-01-12T23:36:32.494Z,975.53
2018-01-12T23:37:32.551Z,975.52
2018-01-12T23:38:32.611Z,975.51
2018-01-12T23:39:32.668Z,975.50
2018-01-12T23:40:32.723Z,975.47
2018-01-12T23:41:32.780Z,975.47
2018-01-12T23:42:32.840Z,975.48
2018-01-12T23:43:32.903Z,975.50
2018-01-12T23:44:32.959Z,975.50
2018-01-12T23:45:33.018Z,975.47
2018-01-12T23:46:33.078Z,975.50
2018-01-12T23:47:33.135Z,975.47
2018-01-12T23:48:33.189Z,975.49
2018-01-12T23:49:33.249Z,975.48
2018-01-12T23:50:33.306Z,975.46
2018-01-12T23:51:33.365Z,975.46
2018-01-12T23:52:33.425Z,975.49
2018-01-12T23:53:33.485Z,975.46
2018-01-12T23:54:33.544Z,975.44
2018-01-12T23:55:33.602Z,975.46
2018-01-12T23:56:33.656Z,975.46
2018-01-12T23:57:33.715Z,975.44
2018-01-12T23:58:33.772Z,975.45
2018-01-12T23:59:33.831Z,975.45
